Siofok, Hungary
Current Conditions -  °F | °C
As of 5:15 AM on Saturday 20 Dec 2014 (Local Time) from LHPA Reporting Station
Clear Clear  
Wind Chill: 50°   Ceiling: Unl
Heat Index: 50°   Visibility: 6mi
Dew Point: 39°   Wind: 11mph
Humidity: 66%   Direction: 350°N
Pressure: 30.06"   Gusts: NA
Location:  46.9°N, 18.06°E
Report Text: LHPA 200315Z 35005MPS CAVOK 10/04 Q1018 NOSIG RMK BLU
Loading
Personal Weather Stations






























Interactive Weather Map New forecast layout! Learn more

10-Day Weather Forecast

Advertisements
Track Severe Weather on mobile